createdAt,value
2017-06-01T00:01:30.718Z,99.79
2017-06-01T00:21:31.119Z,99.81
2017-06-01T00:41:31.433Z,99.73
2017-06-01T01:01:31.949Z,98.46
2017-06-01T01:21:32.382Z,73.60
2017-06-01T01:41:32.844Z,29.93
2017-06-01T02:01:33.311Z,34.13
2017-06-01T02:31:34.081Z,94.31
2017-06-01T02:50:50.278Z,75.00
2017-06-01T03:10:50.340Z,93.81
2017-06-01T03:30:50.820Z,24.53
2017-06-01T03:50:51.380Z,0.00
2017-06-01T04:10:51.801Z,0.00
2017-06-01T04:30:52.297Z,0.00
2017-06-01T04:50:52.767Z,4.10
2017-06-01T05:10:53.230Z,0.00
2017-06-01T05:30:53.716Z,0.00
2017-06-01T05:50:54.260Z,0.60
2017-06-01T06:10:54.752Z,0.08
2017-06-01T06:30:55.091Z,0.00
2017-06-01T06:50:55.677Z,0.00
2017-06-01T07:10:56.221Z,0.00
2017-06-01T07:30:56.734Z,0.02
2017-06-01T07:50:57.203Z,0.08
2017-06-01T08:10:57.725Z,0.14
2017-06-01T08:30:58.218Z,0.08
2017-06-01T08:50:58.725Z,0.62
2017-06-01T09:10:59.250Z,4.13
2017-06-01T09:46:00.130Z,11.69
2017-06-01T10:06:00.585Z,12.59
2017-06-01T10:26:01.063Z,14.80
2017-06-01T10:46:01.534Z,12.49
2017-06-01T11:06:02.005Z,12.05
2017-06-01T11:26:02.524Z,10.02
2017-06-01T11:46:03.084Z,15.64
2017-06-01T12:06:03.594Z,47.35
2017-06-01T12:26:04.143Z,43.17
2017-06-01T12:46:04.542Z,37.74
2017-06-01T13:06:05.146Z,19.24
2017-06-01T13:26:05.571Z,14.18
2017-06-01T13:46:06.188Z,20.53
2017-06-01T14:06:06.631Z,56.32
2017-06-01T14:26:06.970Z,6.03
2017-06-01T14:46:07.435Z,16.06
2017-06-01T15:06:07.854Z,19.86
2017-06-01T15:26:08.329Z,29.37
2017-06-01T15:46:08.722Z,4.63
2017-06-01T16:06:09.282Z,4.45
2017-06-01T16:26:09.714Z,1.70
2017-06-01T16:46:10.179Z,2.23
2017-06-01T17:06:10.789Z,2.18
2017-06-01T17:26:11.216Z,0.00
2017-06-01T17:46:11.781Z,0.00
2017-06-01T18:06:12.174Z,0.00
2017-06-01T18:26:12.711Z,0.00
2017-06-01T18:46:13.119Z,0.01
2017-06-01T19:06:13.618Z,0.00
2017-06-01T19:26:14.105Z,0.54
2017-06-01T19:46:14.610Z,58.96
2017-06-01T20:06:16.114Z,67.49
2017-06-01T20:27:00.073Z,59.87
2017-06-01T20:47:00.497Z,97.13
2017-06-01T21:07:01.033Z,27.15
2017-06-01T21:27:01.404Z,14.21
2017-06-01T21:47:01.844Z,48.98
2017-06-01T22:07:02.163Z,91.18
2017-06-01T22:27:02.437Z,97.23
2017-06-01T22:47:02.865Z,98.34
2017-06-01T23:07:03.214Z,97.27
2017-06-01T23:27:03.635Z,98.93
2017-06-01T23:47:04.023Z,99.64
